createdAt,value
2018-09-12T00:00:48.827Z,20.00
2018-09-12T00:03:17.457Z,20.00
2018-09-12T00:05:46.109Z,20.00
2018-09-12T00:08:14.790Z,20.00
2018-09-12T00:10:43.446Z,20.00
2018-09-12T00:13:12.086Z,19.90
2018-09-12T00:15:40.733Z,19.90
2018-09-12T00:18:09.387Z,19.80
2018-09-12T00:20:38.031Z,19.80
2018-09-12T00:23:06.702Z,19.80
2018-09-12T00:25:35.347Z,19.70
2018-09-12T00:28:03.994Z,19.70
2018-09-12T00:30:32.638Z,19.70
2018-09-12T00:33:01.304Z,19.60
2018-09-12T00:35:29.941Z,19.60
2018-09-12T00:37:58.650Z,19.60
2018-09-12T00:40:27.290Z,19.60
2018-09-12T00:42:55.943Z,19.50
2018-09-12T00:45:24.677Z,19.50
2018-09-12T00:47:53.326Z,19.50
2018-09-12T00:50:21.968Z,19.50
2018-09-12T00:52:50.625Z,19.40
2018-09-12T00:55:19.269Z,19.40
2018-09-12T00:57:47.918Z,19.40
2018-09-12T01:00:16.569Z,19.40
2018-09-12T01:02:45.234Z,19.40
2018-09-12T01:05:13.879Z,19.40
2018-09-12T01:07:42.530Z,19.50
2018-09-12T01:10:11.176Z,19.40
2018-09-12T01:12:39.845Z,19.40
2018-09-12T01:15:08.506Z,19.50
2018-09-12T01:17:37.154Z,19.50
2018-09-12T01:20:05.786Z,19.50
2018-09-12T01:22:34.454Z,19.40
2018-09-12T01:25:03.107Z,19.50
2018-09-12T01:27:31.754Z,19.40
2018-09-12T01:30:00.393Z,19.40
2018-09-12T01:32:29.049Z,19.40
2018-09-12T01:34:57.707Z,19.30
2018-09-12T01:37:26.385Z,19.30
2018-09-12T01:39:55.046Z,19.30
2018-09-12T01:42:23.685Z,19.30
2018-09-12T01:44:52.339Z,19.30
2018-09-12T01:47:20.990Z,19.20
2018-09-12T01:49:49.653Z,19.20
2018-09-12T01:52:18.294Z,19.20
2018-09-12T01:54:46.952Z,19.20
2018-09-12T01:57:15.608Z,19.20
2018-09-12T01:59:44.259Z,19.20
2018-09-12T02:02:12.904Z,19.10
2018-09-12T02:04:41.561Z,19.10
2018-09-12T02:07:10.222Z,19.10
2018-09-12T02:09:38.870Z,19.10
2018-09-12T02:12:07.862Z,19.00
2018-09-12T02:14:36.528Z,19.00
2018-09-12T02:17:05.174Z,18.90
2018-09-12T02:19:33.826Z,18.90
2018-09-12T02:22:02.470Z,18.90
2018-09-12T02:24:31.150Z,18.90
2018-09-12T02:26:59.810Z,18.90
2018-09-12T02:29:28.462Z,18.90
2018-09-12T02:31:57.117Z,18.90
2018-09-12T02:34:25.765Z,18.80
2018-09-12T02:36:54.409Z,18.80
2018-09-12T02:39:23.054Z,18.80
2018-09-12T02:41:51.789Z,18.80
2018-09-12T02:44:20.445Z,18.80
2018-09-12T02:46:49.106Z,18.70
2018-09-12T02:49:17.746Z,18.70
2018-09-12T02:51:46.389Z,18.70
2018-09-12T02:54:15.046Z,18.70
2018-09-12T02:56:43.709Z,18.70
2018-09-12T02:59:12.349Z,18.60
2018-09-12T03:01:41.021Z,18.60
2018-09-12T03:04:09.657Z,18.60
2018-09-12T03:06:38.422Z,18.60
2018-09-12T03:09:07.762Z,18.60
2018-09-12T03:11:36.417Z,18.60
2018-09-12T03:14:05.186Z,18.60
2018-09-12T03:16:33.848Z,18.50
2018-09-12T03:19:02.498Z,18.50
2018-09-12T03:21:31.147Z,18.40
2018-09-12T03:23:59.799Z,18.50
2018-09-12T03:26:28.775Z,18.40
2018-09-12T03:28:57.436Z,18.40
2018-09-12T03:31:26.087Z,18.40
2018-09-12T03:33:54.736Z,18.40
2018-09-12T03:36:23.383Z,18.40
2018-09-12T03:38:52.026Z,18.30
2018-09-12T03:41:20.748Z,18.30
2018-09-12T03:43:49.532Z,18.30
2018-09-12T03:46:18.175Z,18.30
2018-09-12T03:48:47.170Z,18.20
2018-09-12T03:51:15.822Z,18.20
2018-09-12T03:53:44.481Z,18.20
2018-09-12T03:56:13.142Z,18.20
2018-09-12T03:58:41.805Z,18.20
2018-09-12T04:01:10.458Z,18.20
2018-09-12T04:03:39.106Z,18.20
2018-09-12T04:06:07.754Z,18.20
2018-09-12T04:08:36.394Z,18.20
2018-09-12T04:11:05.031Z,18.20
2018-09-12T04:13:33.702Z,18.20
2018-09-12T04:16:02.348Z,18.10
2018-09-12T04:18:31.015Z,18.10
2018-09-12T04:20:59.670Z,18.10
2018-09-12T04:23:28.326Z,18.10
2018-09-12T04:25:56.975Z,18.10
2018-09-12T04:28:25.650Z,18.10
2018-09-12T04:30:54.286Z,18.10
2018-09-12T04:33:22.959Z,18.10
2018-09-12T04:35:51.599Z,18.10
2018-09-12T04:38:20.258Z,18.00
2018-09-12T04:40:48.911Z,18.00
2018-09-12T04:43:17.669Z,18.00
2018-09-12T04:45:46.318Z,17.90
2018-09-12T04:48:14.990Z,17.90
2018-09-12T04:50:43.674Z,17.90
2018-09-12T04:53:12.322Z,17.90
2018-09-12T04:55:41.010Z,17.90
2018-09-12T04:58:09.658Z,17.90
2018-09-12T05:00:38.354Z,17.90
2018-09-12T05:03:06.954Z,17.90
2018-09-12T05:05:35.602Z,17.90
2018-09-12T05:08:04.309Z,18.00
2018-09-12T05:10:33.054Z,17.90
2018-09-12T05:13:01.898Z,17.90
2018-09-12T05:15:30.756Z,17.90
2018-09-12T05:17:59.401Z,18.00
2018-09-12T05:20:28.053Z,18.10
2018-09-12T05:22:56.697Z,18.10
2018-09-12T05:25:25.579Z,18.00
2018-09-12T05:27:54.238Z,18.00
2018-09-12T05:30:22.906Z,18.00
2018-09-12T05:32:51.571Z,18.10
2018-09-12T05:35:20.233Z,18.10
2018-09-12T05:37:49.002Z,18.10
2018-09-12T05:40:17.657Z,18.10
2018-09-12T05:42:46.318Z,18.20
2018-09-12T05:45:14.971Z,18.20
2018-09-12T05:47:43.642Z,18.30
2018-09-12T05:50:12.409Z,18.30
2018-09-12T05:52:40.962Z,18.40
2018-09-12T05:55:09.609Z,18.40
2018-09-12T05:57:38.269Z,18.50
2018-09-12T06:00:07.630Z,18.60
2018-09-12T06:02:36.431Z,18.70
2018-09-12T06:05:05.469Z,18.70
2018-09-12T06:07:34.495Z,18.70
2018-09-12T06:10:03.207Z,18.70
2018-09-12T06:12:31.866Z,18.70
2018-09-12T06:15:00.501Z,18.80
2018-09-12T06:17:29.170Z,19.00
2018-09-12T06:19:57.870Z,19.20
2018-09-12T06:22:26.538Z,19.20
2018-09-12T06:24:55.192Z,19.20
2018-09-12T06:27:23.861Z,19.20
2018-09-12T06:29:52.946Z,19.30
2018-09-12T06:32:21.591Z,19.30
2018-09-12T06:34:50.983Z,19.40
2018-09-12T06:37:19.818Z,19.50
2018-09-12T06:39:48.461Z,19.50
2018-09-12T06:42:17.125Z,19.50
2018-09-12T06:44:45.809Z,19.50
2018-09-12T06:47:14.426Z,19.60
2018-09-12T06:49:46.746Z,19.60
2018-09-12T06:52:16.330Z,19.70
2018-09-12T06:54:45.037Z,19.60
2018-09-12T06:57:13.722Z,19.70
2018-09-12T06:59:42.561Z,19.60
2018-09-12T07:02:11.233Z,19.60
2018-09-12T07:04:39.915Z,19.60
2018-09-12T07:07:08.774Z,19.70
2018-09-12T07:09:37.429Z,19.80
2018-09-12T07:12:06.143Z,19.90
2018-09-12T07:14:34.798Z,20.20
2018-09-12T07:17:03.461Z,20.40
2018-09-12T07:19:32.133Z,20.30
2018-09-12T07:22:00.774Z,20.40
2018-09-12T07:24:29.485Z,20.40
2018-09-12T07:26:58.102Z,20.40
2018-09-12T07:29:26.766Z,20.30
2018-09-12T07:31:55.428Z,20.40
2018-09-12T07:34:24.090Z,20.40
2018-09-12T07:36:52.858Z,20.30
2018-09-12T07:39:21.542Z,20.20
2018-09-12T07:41:50.215Z,20.00
2018-09-12T07:44:18.878Z,20.00
2018-09-12T07:46:47.530Z,20.00
2018-09-12T07:49:16.185Z,20.10
2018-09-12T07:51:44.844Z,20.00
2018-09-12T07:54:13.510Z,19.90
2018-09-12T07:56:42.167Z,20.00
2018-09-12T07:59:10.830Z,20.10
2018-09-12T08:01:39.478Z,20.20
2018-09-12T08:04:08.151Z,20.40
2018-09-12T08:06:36.807Z,20.50
2018-09-12T08:09:08.411Z,20.60
2018-09-12T08:11:37.061Z,20.50
2018-09-12T08:14:05.746Z,20.70
2018-09-12T08:16:34.406Z,20.70
2018-09-12T08:19:03.165Z,20.70
2018-09-12T08:21:31.741Z,20.60
2018-09-12T08:24:00.381Z,20.70
2018-09-12T08:26:29.051Z,20.70
2018-09-12T08:28:58.122Z,20.60
2018-09-12T08:31:27.342Z,20.80
2018-09-12T08:33:55.998Z,20.70
2018-09-12T08:36:24.710Z,20.80
2018-09-12T08:38:53.315Z,20.90
2018-09-12T08:41:21.978Z,21.10
2018-09-12T08:43:51.385Z,21.20
2018-09-12T08:46:20.042Z,21.30
2018-09-12T08:48:48.710Z,21.50
2018-09-12T08:51:18.414Z,21.30
2018-09-12T08:53:47.070Z,21.60
2018-09-12T08:56:15.734Z,21.90
2018-09-12T08:58:44.717Z,21.70
2018-09-12T09:01:13.442Z,21.80
2018-09-12T09:03:42.139Z,22.00
2018-09-12T09:06:10.797Z,22.60
2018-09-12T09:08:39.576Z,23.00
2018-09-12T09:11:08.256Z,23.40
2018-09-12T09:13:36.982Z,23.70
2018-09-12T09:16:05.645Z,24.30
2018-09-12T09:18:34.301Z,24.30
2018-09-12T09:21:02.949Z,24.40
2018-09-12T09:23:31.654Z,23.90
2018-09-12T09:26:02.374Z,23.60
2018-09-12T09:28:31.036Z,23.80
2018-09-12T09:30:59.690Z,23.40
2018-09-12T09:33:28.361Z,23.50
2018-09-12T09:35:57.009Z,23.70
2018-09-12T09:38:25.670Z,23.90
2018-09-12T09:40:54.326Z,24.30
2018-09-12T09:43:23.000Z,24.40
2018-09-12T09:45:51.650Z,24.50
2018-09-12T09:48:21.928Z,24.40
2018-09-12T09:50:50.562Z,24.00
2018-09-12T09:53:19.213Z,23.80
2018-09-12T09:55:47.866Z,24.10
2018-09-12T09:58:16.540Z,24.40
2018-09-12T10:00:50.710Z,24.50
2018-09-12T10:03:24.733Z,24.70
2018-09-12T10:05:58.701Z,25.00
2018-09-12T10:09:04.849Z,24.90
2018-09-12T10:11:33.505Z,25.30
2018-09-12T10:14:02.173Z,25.30
2018-09-12T10:16:30.827Z,25.20
2018-09-12T10:18:59.489Z,25.30
2018-09-12T10:21:28.147Z,24.70
2018-09-12T10:23:56.813Z,24.30
2018-09-12T10:26:25.466Z,24.00
2018-09-12T10:28:54.126Z,23.90
2018-09-12T10:31:22.776Z,24.00
2018-09-12T10:33:51.659Z,24.20
2018-09-12T10:36:20.311Z,24.60
2018-09-12T10:38:48.967Z,24.60
2018-09-12T10:41:17.621Z,24.40
2018-09-12T10:43:46.382Z,24.30
2018-09-12T10:46:15.047Z,24.50
2018-09-12T10:48:43.693Z,24.60
2018-09-12T10:51:12.358Z,24.70
2018-09-12T10:53:41.026Z,24.70
2018-09-12T10:56:09.686Z,24.80
2018-09-12T10:58:38.348Z,24.90
2018-09-12T11:01:07.045Z,24.60
2018-09-12T11:03:35.702Z,24.60
2018-09-12T11:06:04.378Z,25.20
2018-09-12T11:08:33.038Z,25.70
2018-09-12T11:11:01.803Z,26.00
2018-09-12T11:13:30.458Z,25.90
2018-09-12T11:15:59.270Z,25.40
2018-09-12T11:18:27.970Z,25.20
2018-09-12T11:20:56.673Z,24.90
2018-09-12T11:23:25.873Z,25.00
2018-09-12T11:25:54.532Z,24.90
2018-09-12T11:28:23.257Z,25.60
2018-09-12T11:30:51.913Z,25.90
2018-09-12T11:33:20.589Z,25.60
2018-09-12T11:35:49.257Z,25.60
2018-09-12T11:38:18.190Z,26.30
2018-09-12T11:40:46.843Z,26.50
2018-09-12T11:43:15.525Z,25.50
2018-09-12T11:45:44.296Z,25.10
2018-09-12T11:48:12.969Z,24.40
2018-09-12T11:50:41.625Z,24.30
2018-09-12T11:53:10.289Z,24.10
2018-09-12T11:55:39.040Z,24.00
2018-09-12T11:58:07.615Z,23.80
2018-09-12T12:00:36.270Z,23.40
2018-09-12T12:03:04.946Z,22.80
2018-09-12T12:05:33.921Z,22.80
2018-09-12T12:08:02.577Z,23.10
2018-09-12T12:10:31.224Z,23.40
2018-09-12T12:12:59.877Z,23.70
2018-09-12T12:15:28.542Z,24.00
2018-09-12T12:17:57.477Z,23.70
2018-09-12T12:20:26.126Z,23.20
2018-09-12T12:22:54.785Z,23.20
2018-09-12T12:25:23.442Z,22.90
2018-09-12T12:27:52.082Z,22.50
2018-09-12T12:30:20.738Z,21.90
2018-09-12T12:32:49.390Z,21.60
2018-09-12T12:35:18.082Z,21.30
2018-09-12T12:37:46.681Z,21.10
2018-09-12T12:40:15.362Z,20.90
2018-09-12T12:42:44.087Z,20.80
2018-09-12T12:45:12.742Z,20.90
2018-09-12T12:47:41.402Z,21.20
2018-09-12T12:50:10.046Z,21.80
2018-09-12T12:52:38.707Z,22.30
2018-09-12T12:55:07.370Z,22.20
2018-09-12T12:57:36.027Z,22.50
2018-09-12T13:00:04.685Z,22.70
2018-09-12T13:02:33.338Z,22.80
2018-09-12T13:05:01.992Z,23.20
2018-09-12T13:07:30.646Z,23.20
2018-09-12T13:09:59.298Z,22.70
2018-09-12T13:12:27.962Z,22.50
2018-09-12T13:14:56.610Z,22.40
2018-09-12T13:17:25.286Z,22.20
2018-09-12T13:19:53.950Z,21.60
2018-09-12T13:22:22.589Z,21.20
2018-09-12T13:24:51.258Z,20.90
2018-09-12T13:27:19.930Z,20.80
2018-09-12T13:29:48.565Z,20.70
2018-09-12T13:32:17.210Z,20.50
2018-09-12T13:34:45.866Z,20.30
2018-09-12T13:37:14.509Z,20.20
2018-09-12T13:39:43.313Z,20.10
2018-09-12T13:42:11.975Z,19.80
2018-09-12T13:44:40.654Z,19.80
2018-09-12T13:47:09.298Z,19.90
2018-09-12T13:49:38.702Z,19.80
2018-09-12T13:52:07.358Z,20.10
2018-09-12T13:54:36.003Z,20.40
2018-09-12T13:57:04.646Z,20.60
2018-09-12T13:59:33.328Z,20.90
2018-09-12T14:02:01.975Z,20.60
2018-09-12T14:04:30.622Z,20.30
2018-09-12T14:06:59.281Z,20.30
2018-09-12T14:09:27.934Z,20.50
2018-09-12T14:11:56.589Z,20.20
2018-09-12T14:14:25.234Z,19.80
2018-09-12T14:16:53.929Z,19.60
2018-09-12T14:19:22.609Z,19.20
2018-09-12T14:21:51.234Z,19.20
2018-09-12T14:24:19.899Z,18.90
2018-09-12T14:26:48.566Z,18.40
2018-09-12T14:29:17.676Z,18.50
2018-09-12T14:31:46.327Z,18.60
2018-09-12T14:34:15.059Z,18.70
2018-09-12T14:36:43.711Z,18.60
2018-09-12T14:39:12.443Z,18.40
2018-09-12T14:41:41.066Z,18.10
2018-09-12T14:44:10.723Z,18.20
2018-09-12T14:46:39.402Z,18.30
2018-09-12T14:49:09.647Z,18.20
2018-09-12T14:51:38.343Z,18.10
2018-09-12T14:54:06.989Z,18.10
2018-09-12T14:56:35.690Z,18.00
2018-09-12T14:59:05.257Z,18.00
2018-09-12T15:01:35.103Z,18.00
2018-09-12T15:04:03.939Z,18.10
2018-09-12T15:06:34.541Z,17.90
2018-09-12T15:09:03.722Z,17.80
2018-09-12T15:11:32.421Z,17.90
2018-09-12T15:14:01.058Z,17.80
2018-09-12T15:16:30.150Z,17.60
2018-09-12T15:18:58.801Z,17.80
2018-09-12T15:21:28.335Z,17.80
2018-09-12T15:23:57.260Z,17.70
2018-09-12T15:26:25.972Z,17.90
2018-09-12T15:28:54.629Z,17.90
2018-09-12T15:31:23.466Z,17.90
2018-09-12T15:33:52.157Z,17.80
2018-09-12T15:36:20.850Z,17.90
2018-09-12T15:38:49.500Z,17.80
2018-09-12T15:41:18.188Z,17.70
2018-09-12T15:43:46.814Z,17.40
2018-09-12T15:46:15.478Z,17.30
2018-09-12T15:48:44.146Z,17.30
2018-09-12T15:51:12.798Z,17.10
2018-09-12T15:53:41.463Z,16.90
2018-09-12T15:56:10.109Z,17.10
2018-09-12T15:58:38.782Z,17.20
2018-09-12T16:01:07.434Z,17.20
2018-09-12T16:03:36.090Z,17.30
2018-09-12T16:06:04.758Z,17.40
2018-09-12T16:08:33.421Z,17.40
2018-09-12T16:11:02.074Z,17.30
2018-09-12T16:13:30.722Z,17.20
2018-09-12T16:15:59.378Z,17.30
2018-09-12T16:18:28.071Z,17.30
2018-09-12T16:20:56.718Z,17.20
2018-09-12T16:23:25.373Z,17.00
2018-09-12T16:25:54.053Z,17.00
2018-09-12T16:28:23.425Z,17.00
2018-09-12T16:30:52.067Z,17.10
2018-09-12T16:33:20.710Z,17.00
2018-09-12T16:35:49.370Z,17.00
2018-09-12T16:38:18.126Z,16.90
2018-09-12T16:40:46.893Z,16.90
2018-09-12T16:43:15.673Z,16.80
2018-09-12T16:45:44.506Z,16.70
2018-09-12T16:48:13.151Z,16.80
2018-09-12T16:50:41.892Z,16.80
2018-09-12T16:53:10.557Z,16.80
2018-09-12T16:55:39.283Z,16.80
2018-09-12T16:58:07.974Z,16.80
2018-09-12T17:00:36.647Z,16.80
2018-09-12T17:03:05.305Z,16.80
2018-09-12T17:05:33.973Z,16.90
2018-09-12T17:08:02.610Z,16.80
2018-09-12T17:10:31.337Z,16.80
2018-09-12T17:12:59.987Z,16.80
2018-09-12T17:15:29.005Z,16.80
2018-09-12T17:17:57.706Z,16.80
2018-09-12T17:20:26.452Z,16.70
2018-09-12T17:23:01.739Z,16.50
2018-09-12T17:25:30.394Z,16.60
2018-09-12T17:27:59.586Z,16.50
2018-09-12T17:30:28.242Z,16.50
2018-09-12T17:32:56.938Z,16.40
2018-09-12T17:35:25.622Z,16.40
2018-09-12T17:37:54.465Z,16.40
2018-09-12T17:40:23.170Z,16.40
2018-09-12T17:42:51.822Z,16.30
2018-09-12T17:45:20.690Z,16.40
2018-09-12T17:47:49.341Z,16.40
2018-09-12T17:50:19.057Z,16.40
2018-09-12T17:52:48.907Z,16.50
2018-09-12T17:55:17.546Z,16.60
2018-09-12T17:57:46.289Z,16.40
2018-09-12T18:00:14.924Z,16.40
2018-09-12T18:02:43.587Z,16.40
2018-09-12T18:05:13.275Z,16.50
2018-09-12T18:07:41.925Z,16.40
2018-09-12T18:10:10.598Z,16.50
2018-09-12T18:12:39.265Z,16.40
2018-09-12T18:15:07.913Z,16.40
2018-09-12T18:17:36.815Z,16.50
2018-09-12T18:20:05.610Z,16.50
2018-09-12T18:22:34.345Z,16.40
2018-09-12T18:25:03.005Z,16.40
2018-09-12T18:27:31.709Z,16.20
2018-09-12T18:30:07.158Z,16.20
2018-09-12T18:32:35.841Z,16.20
2018-09-12T18:35:04.579Z,16.30
2018-09-12T18:37:33.250Z,16.30
2018-09-12T18:40:01.905Z,16.20
2018-09-12T18:42:30.590Z,16.20
2018-09-12T18:44:59.233Z,16.10
2018-09-12T18:47:30.922Z,16.20
2018-09-12T18:50:02.666Z,16.20
2018-09-12T18:52:34.046Z,16.20
2018-09-12T18:55:02.738Z,16.30
2018-09-12T18:57:31.475Z,16.30
2018-09-12T19:00:00.179Z,16.30
2018-09-12T19:02:28.867Z,16.20
2018-09-12T19:04:57.518Z,16.20
2018-09-12T19:07:26.210Z,16.20
2018-09-12T19:09:56.206Z,16.20
2018-09-12T19:12:24.872Z,16.20
2018-09-12T19:14:53.662Z,16.20
2018-09-12T19:17:22.314Z,16.20
2018-09-12T19:19:50.972Z,16.20
2018-09-12T19:22:19.641Z,16.20
2018-09-12T19:24:48.354Z,16.10
2018-09-12T19:27:17.021Z,16.10
2018-09-12T19:29:45.722Z,16.10
2018-09-12T19:32:14.421Z,16.10
2018-09-12T19:34:43.079Z,16.10
2018-09-12T19:37:12.562Z,16.10
2018-09-12T19:39:41.225Z,16.10
2018-09-12T19:42:09.894Z,16.00
2018-09-12T19:44:38.554Z,16.10
2018-09-12T19:47:07.222Z,16.10
2018-09-12T19:49:35.949Z,16.10
2018-09-12T19:52:04.622Z,16.00
2018-09-12T19:54:33.323Z,16.00
2018-09-12T19:57:01.998Z,16.00
2018-09-12T19:59:30.678Z,16.00
2018-09-12T20:01:59.405Z,16.00
2018-09-12T20:04:28.054Z,16.10
2018-09-12T20:06:56.809Z,16.00
2018-09-12T20:09:25.474Z,16.10
2018-09-12T20:11:54.877Z,16.10
2018-09-12T20:14:23.591Z,16.00
2018-09-12T20:16:52.254Z,16.00
2018-09-12T20:19:20.970Z,16.00
2018-09-12T20:21:49.626Z,16.10
2018-09-12T20:24:18.316Z,16.10
2018-09-12T20:26:46.981Z,16.00
2018-09-12T20:29:15.649Z,16.00
2018-09-12T20:31:44.407Z,16.00
2018-09-12T20:34:13.085Z,16.00
2018-09-12T20:36:41.749Z,16.00
2018-09-12T20:39:11.473Z,15.90
2018-09-12T20:41:40.129Z,15.90
2018-09-12T20:44:09.211Z,15.90
2018-09-12T20:46:37.890Z,16.00
2018-09-12T20:49:06.566Z,15.90
2018-09-12T20:51:35.222Z,15.90
2018-09-12T20:54:03.881Z,15.90
2018-09-12T20:56:32.541Z,16.00
2018-09-12T20:59:01.223Z,15.90
2018-09-12T21:01:29.977Z,15.90
2018-09-12T21:03:58.681Z,16.00
2018-09-12T21:06:27.351Z,16.00
2018-09-12T21:08:56.029Z,15.90
2018-09-12T21:11:24.706Z,15.90
2018-09-12T21:13:53.438Z,15.90
2018-09-12T21:16:22.178Z,16.00
2018-09-12T21:18:50.842Z,16.00
2018-09-12T21:21:19.494Z,16.00
2018-09-12T21:23:48.157Z,16.00
2018-09-12T21:26:16.869Z,16.00
2018-09-12T21:28:45.523Z,16.00
2018-09-12T21:31:14.313Z,16.00
2018-09-12T21:33:42.957Z,16.10
2018-09-12T21:36:11.637Z,16.10
2018-09-12T21:38:40.281Z,16.10
2018-09-12T21:41:09.499Z,16.00
2018-09-12T21:43:38.150Z,16.00
2018-09-12T21:46:06.909Z,16.00
2018-09-12T21:48:35.597Z,16.00
2018-09-12T21:51:04.589Z,16.00
2018-09-12T21:53:33.378Z,15.90
2018-09-12T21:56:02.062Z,15.80
2018-09-12T21:58:30.730Z,15.80
2018-09-12T22:00:59.873Z,15.80
2018-09-12T22:03:28.548Z,15.80
2018-09-12T22:05:57.193Z,15.80
2018-09-12T22:08:25.846Z,15.80
2018-09-12T22:10:54.601Z,15.70
2018-09-12T22:13:23.267Z,15.50
2018-09-12T22:15:51.929Z,15.60
2018-09-12T22:18:20.630Z,15.60
2018-09-12T22:20:49.349Z,15.50
2018-09-12T22:23:17.942Z,15.50
2018-09-12T22:25:46.594Z,15.50
2018-09-12T22:28:15.301Z,15.50
2018-09-12T22:30:44.271Z,15.60
2018-09-12T22:33:12.950Z,15.50
2018-09-12T22:35:41.644Z,15.50
2018-09-12T22:38:10.303Z,15.50
2018-09-12T22:40:38.973Z,15.40
2018-09-12T22:43:07.642Z,15.40
2018-09-12T22:45:36.470Z,15.50
2018-09-12T22:48:05.265Z,15.50
2018-09-12T22:50:33.930Z,15.40
2018-09-12T22:53:02.608Z,15.40
2018-09-12T22:55:31.286Z,15.40
2018-09-12T22:57:59.962Z,15.30
2018-09-12T23:00:28.622Z,15.30
2018-09-12T23:02:57.330Z,15.40
2018-09-12T23:05:25.982Z,15.40
2018-09-12T23:07:54.647Z,15.40
2018-09-12T23:10:23.303Z,15.40
2018-09-12T23:12:51.969Z,15.40
2018-09-12T23:15:20.622Z,15.30
2018-09-12T23:17:49.281Z,15.30
2018-09-12T23:20:17.950Z,15.30
2018-09-12T23:22:46.762Z,15.30
2018-09-12T23:25:15.478Z,15.30
2018-09-12T23:27:44.142Z,15.30
2018-09-12T23:30:12.794Z,15.40
2018-09-12T23:32:41.466Z,15.30
2018-09-12T23:35:10.126Z,15.40
2018-09-12T23:37:38.795Z,15.30
2018-09-12T23:40:07.496Z,15.40
2018-09-12T23:42:36.182Z,15.30
2018-09-12T23:45:04.877Z,15.20
2018-09-12T23:47:33.537Z,15.20
2018-09-12T23:50:02.211Z,15.10
2018-09-12T23:52:30.860Z,15.10
2018-09-12T23:54:59.538Z,15.10
2018-09-12T23:57:28.188Z,15.10
2018-09-12T23:59:56.846Z,15.00
